sensor_id;sensor_type;location;lat;lon;timestamp;temperature;humidity
20158;DHT22;10239;56.820;24.416;2023-06-22T00:00:48;20.30;99.90
20158;DHT22;10239;56.820;24.416;2023-06-22T00:03:18;20.30;99.90
20158;DHT22;10239;56.820;24.416;2023-06-22T00:05:48;20.40;99.90
20158;DHT22;10239;56.820;24.416;2023-06-22T00:08:17;20.40;99.90
20158;DHT22;10239;56.820;24.416;2023-06-22T00:10:46;20.50;99.90
20158;DHT22;10239;56.820;24.416;2023-06-22T00:13:14;20.50;99.90
20158;DHT22;10239;56.820;24.416;2023-06-22T00:15:44;20.50;99.90
20158;DHT22;10239;56.820;24.416;2023-06-22T00:18:13;20.50;99.90
20158;DHT22;10239;56.820;24.416;2023-06-22T00:20:43;20.50;99.90
20158;DHT22;10239;56.820;24.416;2023-06-22T00:23:14;20.40;99.90
20158;DHT22;10239;56.820;24.416;2023-06-22T00:25:43;20.40;99.90
20158;DHT22;10239;56.820;24.416;2023-06-22T00:28:12;20.50;99.90
20158;DHT22;10239;56.820;24.416;2023-06-22T00:30:40;20.40;99.90
20158;DHT22;10239;56.820;24.416;2023-06-22T00:33:08;20.60;99.90
20158;DHT22;10239;56.820;24.416;2023-06-22T00:35:36;20.60;99.90
20158;DHT22;10239;56.820;24.416;2023-06-22T00:38:05;20.50;99.90
20158;DHT22;10239;56.820;24.416;2023-06-22T00:40:34;20.60;99.90
20158;DHT22;10239;56.820;24.416;2023-06-22T00:43:07;20.70;99.90
20158;DHT22;10239;56.820;24.416;2023-06-22T00:45:38;20.40;99.90
20158;DHT22;10239;56.820;24.416;2023-06-22T00:48:07;20.40;99.90
20158;DHT22;10239;56.820;24.416;2023-06-22T00:50:36;20.50;99.90
20158;DHT22;10239;56.820;24.416;2023-06-22T00:53:10;20.60;99.90
20158;DHT22;10239;56.820;24.416;2023-06-22T00:55:44;20.80;99.90
20158;DHT22;10239;56.820;24.416;2023-06-22T00:58:22;20.80;99.90
20158;DHT22;10239;56.820;24.416;2023-06-22T01:00:55;20.90;99.90
20158;DHT22;10239;56.820;24.416;2023-06-22T01:03:27;20.90;99.90
20158;DHT22;10239;56.820;24.416;2023-06-22T01:06:02;21.10;99.90
20158;DHT22;10239;56.820;24.416;2023-06-22T01:08:49;21.20;99.90
20158;DHT22;10239;56.820;24.416;2023-06-22T01:11:45;21.20;99.90
20158;DHT22;10239;56.820;24.416;2023-06-22T01:14:26;21.30;99.90
20158;DHT22;10239;56.820;24.416;2023-06-22T01:17:00;21.20;99.90
20158;DHT22;10239;56.820;24.416;2023-06-22T01:19:49;21.10;99.90
20158;DHT22;10239;56.820;24.416;2023-06-22T01:22:28;21.00;99.90
20158;DHT22;10239;56.820;24.416;2023-06-22T01:28:23;21.00;99.90
20158;DHT22;10239;56.820;24.416;2023-06-22T01:30:54;21.10;99.90
20158;DHT22;10239;56.820;24.416;2023-06-22T01:33:35;21.10;99.90
20158;DHT22;10239;56.820;24.416;2023-06-22T01:36:05;21.10;99.90
20158;DHT22;10239;56.820;24.416;2023-06-22T01:38:34;21.20;99.90
20158;DHT22;10239;56.820;24.416;2023-06-22T01:41:05;21.40;99.90
20158;DHT22;10239;56.820;24.416;2023-06-22T01:43:34;21.50;99.90
20158;DHT22;10239;56.820;24.416;2023-06-22T01:46:04;21.40;99.90
20158;DHT22;10239;56.820;24.416;2023-06-22T01:48:32;21.60;99.90
20158;DHT22;10239;56.820;24.416;2023-06-22T01:51:02;21.60;99.90
20158;DHT22;10239;56.820;24.416;2023-06-22T01:53:30;21.60;99.90
20158;DHT22;10239;56.820;24.416;2023-06-22T01:55:59;21.50;99.90
20158;DHT22;10239;56.820;24.416;2023-06-22T01:58:29;21.60;99.90
20158;DHT22;10239;56.820;24.416;2023-06-22T02:01:10;21.60;99.90
20158;DHT22;10239;56.820;24.416;2023-06-22T02:04:21;21.50;99.90
20158;DHT22;10239;56.820;24.416;2023-06-22T02:06:56;21.70;99.90
20158;DHT22;10239;56.820;24.416;2023-06-22T02:09:33;21.60;99.90
20158;DHT22;10239;56.820;24.416;2023-06-22T02:12:09;21.70;99.90
20158;DHT22;10239;56.820;24.416;2023-06-22T02:14:47;21.70;99.90
20158;DHT22;10239;56.820;24.416;2023-06-22T02:17:26;21.60;99.90
20158;DHT22;10239;56.820;24.416;2023-06-22T02:20:15;21.60;99.90
20158;DHT22;10239;56.820;24.416;2023-06-22T02:22:59;21.60;99.90
20158;DHT22;10239;56.820;24.416;2023-06-22T02:25:28;21.60;99.90
20158;DHT22;10239;56.820;24.416;2023-06-22T02:27:56;21.60;99.90
20158;DHT22;10239;56.820;24.416;2023-06-22T02:30:24;21.80;99.90
20158;DHT22;10239;56.820;24.416;2023-06-22T02:32:55;21.70;99.90
20158;DHT22;10239;56.820;24.416;2023-06-22T02:35:30;21.80;99.90
20158;DHT22;10239;56.820;24.416;2023-06-22T02:38:04;21.80;99.90
20158;DHT22;10239;56.820;24.416;2023-06-22T02:40:32;21.70;99.90
20158;DHT22;10239;56.820;24.416;2023-06-22T02:43:02;21.60;99.90
20158;DHT22;10239;56.820;24.416;2023-06-22T02:45:33;21.60;99.90
20158;DHT22;10239;56.820;24.416;2023-06-22T02:48:05;21.90;99.90
20158;DHT22;10239;56.820;24.416;2023-06-22T02:50:35;21.90;99.90
20158;DHT22;10239;56.820;24.416;2023-06-22T02:53:06;21.90;99.90
20158;DHT22;10239;56.820;24.416;2023-06-22T02:55:38;21.90;99.90
20158;DHT22;10239;56.820;24.416;2023-06-22T02:58:09;22.10;99.90
20158;DHT22;10239;56.820;24.416;2023-06-22T03:00:38;22.00;99.90
20158;DHT22;10239;56.820;24.416;2023-06-22T03:03:08;22.00;99.90
20158;DHT22;10239;56.820;24.416;2023-06-22T03:05:42;22.00;99.90
20158;DHT22;10239;56.820;24.416;2023-06-22T03:08:10;22.20;99.90
20158;DHT22;10239;56.820;24.416;2023-06-22T03:10:38;22.10;99.90
20158;DHT22;10239;56.820;24.416;2023-06-22T03:13:06;22.30;99.90
20158;DHT22;10239;56.820;24.416;2023-06-22T03:15:34;22.30;99.90
20158;DHT22;10239;56.820;24.416;2023-06-22T03:18:02;22.40;99.90
20158;DHT22;10239;56.820;24.416;2023-06-22T03:20:42;22.30;99.90
20158;DHT22;10239;56.820;24.416;2023-06-22T03:23:19;22.30;99.90
20158;DHT22;10239;56.820;24.416;2023-06-22T03:26:08;22.30;99.90
20158;DHT22;10239;56.820;24.416;2023-06-22T03:28:47;22.30;99.90
20158;DHT22;10239;56.820;24.416;2023-06-22T03:31:20;22.20;99.90
20158;DHT22;10239;56.820;24.416;2023-06-22T03:34:20;22.30;99.90
20158;DHT22;10239;56.820;24.416;2023-06-22T03:36:51;22.30;99.90
20158;DHT22;10239;56.820;24.416;2023-06-22T03:39:23;22.40;99.90
20158;DHT22;10239;56.820;24.416;2023-06-22T03:41:52;22.30;99.90
20158;DHT22;10239;56.820;24.416;2023-06-22T03:44:20;22.30;99.90
20158;DHT22;10239;56.820;24.416;2023-06-22T03:49:52;22.00;99.90
20158;DHT22;10239;56.820;24.416;2023-06-22T03:52:28;22.10;99.90
20158;DHT22;10239;56.820;24.416;2023-06-22T03:54:57;22.20;99.90
20158;DHT22;10239;56.820;24.416;2023-06-22T03:57:36;22.30;99.90
20158;DHT22;10239;56.820;24.416;2023-06-22T04:00:08;22.40;99.90
20158;DHT22;10239;56.820;24.416;2023-06-22T04:02:40;22.40;99.90
20158;DHT22;10239;56.820;24.416;2023-06-22T04:05:09;22.30;99.90
20158;DHT22;10239;56.820;24.416;2023-06-22T04:07:39;22.40;99.90
20158;DHT22;10239;56.820;24.416;2023-06-22T04:10:07;22.50;99.90
20158;DHT22;10239;56.820;24.416;2023-06-22T04:12:39;22.40;99.90
20158;DHT22;10239;56.820;24.416;2023-06-22T04:15:07;22.40;99.90
20158;DHT22;10239;56.820;24.416;2023-06-22T04:17:34;22.40;99.90
20158;DHT22;10239;56.820;24.416;2023-06-22T04:20:02;22.40;99.90
20158;DHT22;10239;56.820;24.416;2023-06-22T04:22:36;22.40;99.90
20158;DHT22;10239;56.820;24.416;2023-06-22T04:25:08;22.50;99.90
20158;DHT22;10239;56.820;24.416;2023-06-22T04:27:37;22.40;99.90
20158;DHT22;10239;56.820;24.416;2023-06-22T04:30:12;22.60;99.90
20158;DHT22;10239;56.820;24.416;2023-06-22T04:32:45;22.60;99.90
20158;DHT22;10239;56.820;24.416;2023-06-22T04:35:13;22.70;99.90
20158;DHT22;10239;56.820;24.416;2023-06-22T04:37:44;22.70;99.90
20158;DHT22;10239;56.820;24.416;2023-06-22T04:40:16;22.90;99.90
20158;DHT22;10239;56.820;24.416;2023-06-22T04:42:44;22.80;99.90
20158;DHT22;10239;56.820;24.416;2023-06-22T04:45:20;23.00;99.90
20158;DHT22;10239;56.820;24.416;2023-06-22T04:47:48;23.20;99.90
20158;DHT22;10239;56.820;24.416;2023-06-22T04:50:16;23.30;99.90
20158;DHT22;10239;56.820;24.416;2023-06-22T04:52:45;23.30;99.90
20158;DHT22;10239;56.820;24.416;2023-06-22T04:55:14;23.30;99.90
20158;DHT22;10239;56.820;24.416;2023-06-22T04:57:46;23.40;99.90
20158;DHT22;10239;56.820;24.416;2023-06-22T05:00:20;23.30;99.90
20158;DHT22;10239;56.820;24.416;2023-06-22T05:02:51;23.40;99.90
20158;DHT22;10239;56.820;24.416;2023-06-22T05:05:24;23.40;99.90
20158;DHT22;10239;56.820;24.416;2023-06-22T05:07:52;23.50;99.90
20158;DHT22;10239;56.820;24.416;2023-06-22T05:10:20;23.70;99.90
20158;DHT22;10239;56.820;24.416;2023-06-22T05:12:48;23.90;99.90
20158;DHT22;10239;56.820;24.416;2023-06-22T05:15:16;24.10;99.90
20158;DHT22;10239;56.820;24.416;2023-06-22T05:17:46;24.10;99.90
20158;DHT22;10239;56.820;24.416;2023-06-22T05:20:14;24.10;99.90
20158;DHT22;10239;56.820;24.416;2023-06-22T05:22:45;24.00;99.90
20158;DHT22;10239;56.820;24.416;2023-06-22T05:25:13;23.80;99.90
20158;DHT22;10239;56.820;24.416;2023-06-22T05:27:41;23.90;99.90
20158;DHT22;10239;56.820;24.416;2023-06-22T05:30:11;23.70;99.90
20158;DHT22;10239;56.820;24.416;2023-06-22T05:32:39;23.70;99.90
20158;DHT22;10239;56.820;24.416;2023-06-22T05:35:06;23.40;99.90
20158;DHT22;10239;56.820;24.416;2023-06-22T05:37:34;23.50;99.90
20158;DHT22;10239;56.820;24.416;2023-06-22T05:40:02;23.50;99.90
20158;DHT22;10239;56.820;24.416;2023-06-22T05:42:30;23.40;99.90
20158;DHT22;10239;56.820;24.416;2023-06-22T05:44:58;23.30;99.90
20158;DHT22;10239;56.820;24.416;2023-06-22T05:47:26;23.10;99.90
20158;DHT22;10239;56.820;24.416;2023-06-22T05:49:54;23.00;99.90
20158;DHT22;10239;56.820;24.416;2023-06-22T05:52:21;23.00;99.90
20158;DHT22;10239;56.820;24.416;2023-06-22T05:54:49;22.80;99.90
20158;DHT22;10239;56.820;24.416;2023-06-22T05:57:17;22.40;99.90
20158;DHT22;10239;56.820;24.416;2023-06-22T05:59:44;22.40;99.90
20158;DHT22;10239;56.820;24.416;2023-06-22T06:02:12;22.40;99.90
20158;DHT22;10239;56.820;24.416;2023-06-22T06:04:40;22.30;99.90
20158;DHT22;10239;56.820;24.416;2023-06-22T06:07:08;22.20;99.90
20158;DHT22;10239;56.820;24.416;2023-06-22T06:09:35;22.20;99.90
20158;DHT22;10239;56.820;24.416;2023-06-22T06:12:03;22.30;99.90
20158;DHT22;10239;56.820;24.416;2023-06-22T06:14:32;22.40;99.90
20158;DHT22;10239;56.820;24.416;2023-06-22T06:16:59;22.10;99.90
20158;DHT22;10239;56.820;24.416;2023-06-22T06:19:27;22.10;99.90
20158;DHT22;10239;56.820;24.416;2023-06-22T06:21:55;22.10;99.90
20158;DHT22;10239;56.820;24.416;2023-06-22T06:24:22;22.10;99.90
20158;DHT22;10239;56.820;24.416;2023-06-22T06:26:50;22.10;99.90
20158;DHT22;10239;56.820;24.416;2023-06-22T06:29:18;21.90;99.90
20158;DHT22;10239;56.820;24.416;2023-06-22T06:31:46;21.90;99.90
20158;DHT22;10239;56.820;24.416;2023-06-22T06:34:14;22.00;99.90
20158;DHT22;10239;56.820;24.416;2023-06-22T06:36:42;22.00;99.90
20158;DHT22;10239;56.820;24.416;2023-06-22T06:39:09;22.10;99.90
20158;DHT22;10239;56.820;24.416;2023-06-22T06:41:37;22.10;99.90
20158;DHT22;10239;56.820;24.416;2023-06-22T06:44:11;22.10;99.90
20158;DHT22;10239;56.820;24.416;2023-06-22T06:46:38;22.20;99.90
20158;DHT22;10239;56.820;24.416;2023-06-22T06:49:06;22.10;99.90
20158;DHT22;10239;56.820;24.416;2023-06-22T06:51:34;22.10;99.90
20158;DHT22;10239;56.820;24.416;2023-06-22T06:54:02;22.20;99.90
20158;DHT22;10239;56.820;24.416;2023-06-22T06:56:30;22.20;99.90
20158;DHT22;10239;56.820;24.416;2023-06-22T06:59:00;22.30;99.90
20158;DHT22;10239;56.820;24.416;2023-06-22T07:01:27;22.40;99.90
20158;DHT22;10239;56.820;24.416;2023-06-22T07:04:01;22.40;99.90
20158;DHT22;10239;56.820;24.416;2023-06-22T07:06:29;22.50;99.90
20158;DHT22;10239;56.820;24.416;2023-06-22T07:08:59;22.50;99.90
20158;DHT22;10239;56.820;24.416;2023-06-22T07:11:28;22.40;99.90
20158;DHT22;10239;56.820;24.416;2023-06-22T07:13:55;22.30;99.90
20158;DHT22;10239;56.820;24.416;2023-06-22T07:16:23;22.50;99.90
20158;DHT22;10239;56.820;24.416;2023-06-22T07:18:53;22.60;99.90
20158;DHT22;10239;56.820;24.416;2023-06-22T07:21:20;22.70;99.90
20158;DHT22;10239;56.820;24.416;2023-06-22T07:23:48;22.50;99.90
20158;DHT22;10239;56.820;24.416;2023-06-22T07:26:15;22.70;99.90
20158;DHT22;10239;56.820;24.416;2023-06-22T07:28:43;22.70;99.90
20158;DHT22;10239;56.820;24.416;2023-06-22T07:31:10;22.50;99.90
20158;DHT22;10239;56.820;24.416;2023-06-22T07:33:38;22.10;99.90
20158;DHT22;10239;56.820;24.416;2023-06-22T07:36:05;22.00;99.90
20158;DHT22;10239;56.820;24.416;2023-06-22T07:38:35;21.80;99.90
20158;DHT22;10239;56.820;24.416;2023-06-22T07:41:02;21.90;99.90
20158;DHT22;10239;56.820;24.416;2023-06-22T07:43:32;21.80;99.90
20158;DHT22;10239;56.820;24.416;2023-06-22T07:46:01;21.30;99.90
20158;DHT22;10239;56.820;24.416;2023-06-22T07:48:29;21.20;99.90
20158;DHT22;10239;56.820;24.416;2023-06-22T07:50:57;21.30;99.90
20158;DHT22;10239;56.820;24.416;2023-06-22T07:53:24;21.40;99.90
20158;DHT22;10239;56.820;24.416;2023-06-22T07:55:52;21.50;99.90
20158;DHT22;10239;56.820;24.416;2023-06-22T07:58:19;21.80;99.90
20158;DHT22;10239;56.820;24.416;2023-06-22T08:00:48;22.20;99.90
20158;DHT22;10239;56.820;24.416;2023-06-22T08:03:16;22.30;99.90
20158;DHT22;10239;56.820;24.416;2023-06-22T08:05:44;22.40;99.90
20158;DHT22;10239;56.820;24.416;2023-06-22T08:08:12;22.80;99.90
20158;DHT22;10239;56.820;24.416;2023-06-22T08:10:42;23.10;99.90
20158;DHT22;10239;56.820;24.416;2023-06-22T08:13:10;22.90;99.90
20158;DHT22;10239;56.820;24.416;2023-06-22T08:15:37;23.30;99.90
20158;DHT22;10239;56.820;24.416;2023-06-22T08:18:05;23.60;99.90
20158;DHT22;10239;56.820;24.416;2023-06-22T08:20:33;23.80;99.90
20158;DHT22;10239;56.820;24.416;2023-06-22T08:23:00;24.00;99.90
20158;DHT22;10239;56.820;24.416;2023-06-22T08:25:33;23.70;99.90
20158;DHT22;10239;56.820;24.416;2023-06-22T08:28:02;24.00;99.90
20158;DHT22;10239;56.820;24.416;2023-06-22T08:30:30;24.30;99.90
20158;DHT22;10239;56.820;24.416;2023-06-22T08:32:58;24.40;99.90
20158;DHT22;10239;56.820;24.416;2023-06-22T08:35:26;23.90;99.90
20158;DHT22;10239;56.820;24.416;2023-06-22T08:37:54;24.00;99.90
20158;DHT22;10239;56.820;24.416;2023-06-22T08:40:24;24.20;99.90
20158;DHT22;10239;56.820;24.416;2023-06-22T08:42:52;24.70;99.90
20158;DHT22;10239;56.820;24.416;2023-06-22T08:45:20;25.10;99.90
20158;DHT22;10239;56.820;24.416;2023-06-22T08:47:48;25.20;99.90
20158;DHT22;10239;56.820;24.416;2023-06-22T08:50:16;24.90;99.90
20158;DHT22;10239;56.820;24.416;2023-06-22T08:52:44;24.70;99.90
20158;DHT22;10239;56.820;24.416;2023-06-22T08:55:13;24.50;99.90
20158;DHT22;10239;56.820;24.416;2023-06-22T08:57:41;24.20;99.90
20158;DHT22;10239;56.820;24.416;2023-06-22T09:00:10;24.10;99.90
20158;DHT22;10239;56.820;24.416;2023-06-22T09:02:48;23.80;99.90
20158;DHT22;10239;56.820;24.416;2023-06-22T09:05:16;23.90;99.90
20158;DHT22;10239;56.820;24.416;2023-06-22T09:07:44;24.00;99.90
20158;DHT22;10239;56.820;24.416;2023-06-22T09:10:11;23.90;99.90
20158;DHT22;10239;56.820;24.416;2023-06-22T09:12:39;24.00;99.90
20158;DHT22;10239;56.820;24.416;2023-06-22T09:15:07;24.10;99.90
20158;DHT22;10239;56.820;24.416;2023-06-22T09:17:41;23.90;99.90
20158;DHT22;10239;56.820;24.416;2023-06-22T09:20:10;24.00;99.90
20158;DHT22;10239;56.820;24.416;2023-06-22T09:22:38;23.90;99.90
20158;DHT22;10239;56.820;24.416;2023-06-22T09:25:06;24.10;99.90
20158;DHT22;10239;56.820;24.416;2023-06-22T09:27:34;24.20;99.90
20158;DHT22;10239;56.820;24.416;2023-06-22T09:30:02;24.30;99.90
20158;DHT22;10239;56.820;24.416;2023-06-22T09:32:31;24.60;99.90
20158;DHT22;10239;56.820;24.416;2023-06-22T09:35:03;25.10;99.90
20158;DHT22;10239;56.820;24.416;2023-06-22T09:37:33;25.40;99.90
20158;DHT22;10239;56.820;24.416;2023-06-22T09:40:01;25.50;99.90
20158;DHT22;10239;56.820;24.416;2023-06-22T09:42:28;25.70;99.90
20158;DHT22;10239;56.820;24.416;2023-06-22T09:44:56;25.70;99.90
20158;DHT22;10239;56.820;24.416;2023-06-22T09:47:24;25.70;99.90
20158;DHT22;10239;56.820;24.416;2023-06-22T09:49:51;25.90;99.90
20158;DHT22;10239;56.820;24.416;2023-06-22T09:52:19;26.00;99.90
20158;DHT22;10239;56.820;24.416;2023-06-22T09:54:50;26.00;99.90
20158;DHT22;10239;56.820;24.416;2023-06-22T09:57:17;25.90;99.90
20158;DHT22;10239;56.820;24.416;2023-06-22T09:59:45;25.80;99.90
20158;DHT22;10239;56.820;24.416;2023-06-22T10:02:16;25.80;99.90
20158;DHT22;10239;56.820;24.416;2023-06-22T10:04:44;25.80;99.90
20158;DHT22;10239;56.820;24.416;2023-06-22T10:07:13;25.60;99.90
20158;DHT22;10239;56.820;24.416;2023-06-22T10:09:40;25.70;99.90
20158;DHT22;10239;56.820;24.416;2023-06-22T10:12:08;25.80;99.90
20158;DHT22;10239;56.820;24.416;2023-06-22T10:14:36;25.90;99.90
20158;DHT22;10239;56.820;24.416;2023-06-22T10:17:04;25.70;99.90
20158;DHT22;10239;56.820;24.416;2023-06-22T10:19:34;25.60;99.90
20158;DHT22;10239;56.820;24.416;2023-06-22T10:22:05;25.60;99.90
20158;DHT22;10239;56.820;24.416;2023-06-22T10:24:33;25.70;99.90
20158;DHT22;10239;56.820;24.416;2023-06-22T10:27:00;25.70;99.90
20158;DHT22;10239;56.820;24.416;2023-06-22T10:29:28;25.80;99.90
20158;DHT22;10239;56.820;24.416;2023-06-22T10:31:55;25.80;99.90
20158;DHT22;10239;56.820;24.416;2023-06-22T10:34:23;25.70;99.90
20158;DHT22;10239;56.820;24.416;2023-06-22T10:36:51;25.80;99.90
20158;DHT22;10239;56.820;24.416;2023-06-22T10:39:18;25.80;99.90
20158;DHT22;10239;56.820;24.416;2023-06-22T10:41:46;25.70;99.90
20158;DHT22;10239;56.820;24.416;2023-06-22T10:44:14;25.70;99.90
20158;DHT22;10239;56.820;24.416;2023-06-22T10:46:42;25.70;99.90
20158;DHT22;10239;56.820;24.416;2023-06-22T10:49:10;25.70;99.90
20158;DHT22;10239;56.820;24.416;2023-06-22T10:51:37;25.50;99.90
20158;DHT22;10239;56.820;24.416;2023-06-22T10:54:05;25.40;99.90
20158;DHT22;10239;56.820;24.416;2023-06-22T10:56:33;25.30;99.90
20158;DHT22;10239;56.820;24.416;2023-06-22T10:59:01;25.20;99.90
20158;DHT22;10239;56.820;24.416;2023-06-22T11:01:29;25.20;99.90
20158;DHT22;10239;56.820;24.416;2023-06-22T11:04:03;25.10;99.90
20158;DHT22;10239;56.820;24.416;2023-06-22T11:06:32;25.00;99.90
20158;DHT22;10239;56.820;24.416;2023-06-22T11:09:00;24.80;99.90
20158;DHT22;10239;56.820;24.416;2023-06-22T11:11:48;24.70;99.90
20158;DHT22;10239;56.820;24.416;2023-06-22T11:14:16;24.70;99.90
20158;DHT22;10239;56.820;24.416;2023-06-22T11:16:44;24.80;99.90
20158;DHT22;10239;56.820;24.416;2023-06-22T11:19:16;24.90;99.90
20158;DHT22;10239;56.820;24.416;2023-06-22T11:21:43;25.10;99.90
20158;DHT22;10239;56.820;24.416;2023-06-22T11:24:11;25.30;99.90
20158;DHT22;10239;56.820;24.416;2023-06-22T11:26:38;25.50;99.90
20158;DHT22;10239;56.820;24.416;2023-06-22T11:29:06;25.50;99.90
20158;DHT22;10239;56.820;24.416;2023-06-22T11:31:40;25.30;99.90
20158;DHT22;10239;56.820;24.416;2023-06-22T11:34:09;25.20;99.90
20158;DHT22;10239;56.820;24.416;2023-06-22T11:36:38;25.10;99.90
20158;DHT22;10239;56.820;24.416;2023-06-22T11:39:05;25.00;99.90
20158;DHT22;10239;56.820;24.416;2023-06-22T11:41:33;24.90;99.90
20158;DHT22;10239;56.820;24.416;2023-06-22T11:44:00;24.90;99.90
20158;DHT22;10239;56.820;24.416;2023-06-22T11:46:28;24.80;99.90
20158;DHT22;10239;56.820;24.416;2023-06-22T11:48:55;24.60;99.90
20158;DHT22;10239;56.820;24.416;2023-06-22T11:51:23;24.50;99.90
20158;DHT22;10239;56.820;24.416;2023-06-22T11:53:50;24.50;99.90
20158;DHT22;10239;56.820;24.416;2023-06-22T11:56:18;24.50;99.90
20158;DHT22;10239;56.820;24.416;2023-06-22T11:58:45;24.50;99.90
20158;DHT22;10239;56.820;24.416;2023-06-22T12:01:13;24.60;99.90
20158;DHT22;10239;56.820;24.416;2023-06-22T12:03:42;24.80;99.90
20158;DHT22;10239;56.820;24.416;2023-06-22T12:06:11;24.90;99.90
20158;DHT22;10239;56.820;24.416;2023-06-22T12:08:38;24.90;99.90
20158;DHT22;10239;56.820;24.416;2023-06-22T12:11:07;25.00;99.90
20158;DHT22;10239;56.820;24.416;2023-06-22T12:13:34;25.20;99.90
20158;DHT22;10239;56.820;24.416;2023-06-22T12:16:02;25.10;99.90
20158;DHT22;10239;56.820;24.416;2023-06-22T12:18:29;25.00;99.90
20158;DHT22;10239;56.820;24.416;2023-06-22T12:20:57;24.90;99.90
20158;DHT22;10239;56.820;24.416;2023-06-22T12:23:24;24.70;99.90
20158;DHT22;10239;56.820;24.416;2023-06-22T12:25:53;24.70;99.90
20158;DHT22;10239;56.820;24.416;2023-06-22T12:28:20;24.70;99.90
20158;DHT22;10239;56.820;24.416;2023-06-22T12:30:48;24.70;99.90
20158;DHT22;10239;56.820;24.416;2023-06-22T12:33:16;24.80;99.90
20158;DHT22;10239;56.820;24.416;2023-06-22T12:35:45;24.90;99.90
20158;DHT22;10239;56.820;24.416;2023-06-22T12:38:13;24.90;99.90
20158;DHT22;10239;56.820;24.416;2023-06-22T12:40:40;24.90;99.90
20158;DHT22;10239;56.820;24.416;2023-06-22T12:43:08;25.10;99.90
20158;DHT22;10239;56.820;24.416;2023-06-22T12:45:36;25.30;99.90
20158;DHT22;10239;56.820;24.416;2023-06-22T12:48:04;25.40;99.90
20158;DHT22;10239;56.820;24.416;2023-06-22T12:50:32;25.50;99.90
20158;DHT22;10239;56.820;24.416;2023-06-22T12:53:00;25.40;99.90
20158;DHT22;10239;56.820;24.416;2023-06-22T12:55:29;25.30;99.90
20158;DHT22;10239;56.820;24.416;2023-06-22T12:57:57;25.30;99.90
20158;DHT22;10239;56.820;24.416;2023-06-22T13:00:25;25.30;99.90
20158;DHT22;10239;56.820;24.416;2023-06-22T13:02:53;25.40;99.90
20158;DHT22;10239;56.820;24.416;2023-06-22T13:05:23;25.40;99.90
20158;DHT22;10239;56.820;24.416;2023-06-22T13:07:50;25.60;99.90
20158;DHT22;10239;56.820;24.416;2023-06-22T13:10:21;25.70;99.90
20158;DHT22;10239;56.820;24.416;2023-06-22T13:12:49;25.70;99.90
20158;DHT22;10239;56.820;24.416;2023-06-22T13:15:17;25.70;99.90
20158;DHT22;10239;56.820;24.416;2023-06-22T13:17:45;26.00;99.90
20158;DHT22;10239;56.820;24.416;2023-06-22T13:20:13;26.30;99.90
20158;DHT22;10239;56.820;24.416;2023-06-22T13:22:41;26.50;99.90
20158;DHT22;10239;56.820;24.416;2023-06-22T13:25:11;26.60;99.90
20158;DHT22;10239;56.820;24.416;2023-06-22T13:27:52;27.00;99.90
20158;DHT22;10239;56.820;24.416;2023-06-22T13:30:20;27.30;99.90
20158;DHT22;10239;56.820;24.416;2023-06-22T13:32:48;27.40;99.90
20158;DHT22;10239;56.820;24.416;2023-06-22T13:35:15;27.40;99.90
20158;DHT22;10239;56.820;24.416;2023-06-22T13:37:43;27.40;99.90
20158;DHT22;10239;56.820;24.416;2023-06-22T13:40:11;27.40;99.90
20158;DHT22;10239;56.820;24.416;2023-06-22T13:42:39;27.40;99.90
20158;DHT22;10239;56.820;24.416;2023-06-22T13:45:08;27.40;99.90
20158;DHT22;10239;56.820;24.416;2023-06-22T13:47:35;27.40;99.90
20158;DHT22;10239;56.820;24.416;2023-06-22T13:50:03;27.60;99.90
20158;DHT22;10239;56.820;24.416;2023-06-22T13:52:31;27.70;99.90
20158;DHT22;10239;56.820;24.416;2023-06-22T13:54:59;27.50;99.90
20158;DHT22;10239;56.820;24.416;2023-06-22T13:57:26;27.40;99.90
20158;DHT22;10239;56.820;24.416;2023-06-22T13:59:54;27.70;99.90
20158;DHT22;10239;56.820;24.416;2023-06-22T14:02:22;27.90;99.90
20158;DHT22;10239;56.820;24.416;2023-06-22T14:04:49;27.90;99.90
20158;DHT22;10239;56.820;24.416;2023-06-22T14:07:18;27.90;99.90
20158;DHT22;10239;56.820;24.416;2023-06-22T14:09:47;27.70;99.90
20158;DHT22;10239;56.820;24.416;2023-06-22T14:12:15;27.50;99.90
20158;DHT22;10239;56.820;24.416;2023-06-22T14:14:45;27.40;99.90
20158;DHT22;10239;56.820;24.416;2023-06-22T14:17:12;27.00;99.90
20158;DHT22;10239;56.820;24.416;2023-06-22T14:19:40;26.90;99.90
20158;DHT22;10239;56.820;24.416;2023-06-22T14:22:08;27.00;99.90
20158;DHT22;10239;56.820;24.416;2023-06-22T14:24:35;26.90;99.90
20158;DHT22;10239;56.820;24.416;2023-06-22T14:27:03;26.80;99.90
20158;DHT22;10239;56.820;24.416;2023-06-22T14:29:35;26.80;99.90
20158;DHT22;10239;56.820;24.416;2023-06-22T14:32:03;26.80;99.90
20158;DHT22;10239;56.820;24.416;2023-06-22T14:34:34;26.80;99.90
20158;DHT22;10239;56.820;24.416;2023-06-22T14:37:12;26.90;99.90
20158;DHT22;10239;56.820;24.416;2023-06-22T14:39:40;26.80;99.90
20158;DHT22;10239;56.820;24.416;2023-06-22T14:42:08;27.00;99.90
20158;DHT22;10239;56.820;24.416;2023-06-22T14:44:36;27.30;99.90
20158;DHT22;10239;56.820;24.416;2023-06-22T14:47:04;27.40;99.90
20158;DHT22;10239;56.820;24.416;2023-06-22T14:49:32;27.20;99.90
20158;DHT22;10239;56.820;24.416;2023-06-22T14:52:00;27.00;99.90
20158;DHT22;10239;56.820;24.416;2023-06-22T14:54:27;26.80;99.90
20158;DHT22;10239;56.820;24.416;2023-06-22T14:56:55;26.70;99.90
20158;DHT22;10239;56.820;24.416;2023-06-22T14:59:22;26.50;99.90
20158;DHT22;10239;56.820;24.416;2023-06-22T15:01:50;26.20;99.90
20158;DHT22;10239;56.820;24.416;2023-06-22T15:04:18;26.00;99.90
20158;DHT22;10239;56.820;24.416;2023-06-22T15:06:46;26.10;99.90
20158;DHT22;10239;56.820;24.416;2023-06-22T15:09:13;26.20;99.90
20158;DHT22;10239;56.820;24.416;2023-06-22T15:11:41;26.20;99.90
20158;DHT22;10239;56.820;24.416;2023-06-22T15:14:09;26.20;99.90
20158;DHT22;10239;56.820;24.416;2023-06-22T15:16:38;26.40;99.90
20158;DHT22;10239;56.820;24.416;2023-06-22T15:19:06;26.40;99.90
20158;DHT22;10239;56.820;24.416;2023-06-22T15:21:33;26.50;99.90
20158;DHT22;10239;56.820;24.416;2023-06-22T15:24:01;26.50;99.90
20158;DHT22;10239;56.820;24.416;2023-06-22T15:26:29;26.50;99.90
20158;DHT22;10239;56.820;24.416;2023-06-22T15:28:57;26.40;99.90
20158;DHT22;10239;56.820;24.416;2023-06-22T15:31:26;26.30;99.90
20158;DHT22;10239;56.820;24.416;2023-06-22T15:33:54;26.50;99.90
20158;DHT22;10239;56.820;24.416;2023-06-22T15:36:22;26.50;99.90